Time;durP1;ratioP1;P1;durP2;ratioP2;P2;SDS_P1;SDS_P2;PMS_P1;PMS_P2;Temp;Humidity;BMP_temperature;BMP_pressure;BME280_temperature;BME280_humidity;BME280_pressure;Samples;Min_cycle;Max_cycle;Signal;HPM_P1;HPM_P2
2023/07/12 07:01:21;;;;;;;4.28;1.17;;;18.40;99.90;20.50;100915.00;;;;6164873;22;1393686;-70
2023/07/12 07:03:47;;;;;;;3.72;1.80;;;18.50;99.90;21.40;100905.00;;;;6191207;23;20150;-71
2023/07/12 07:06:17;;;;;;;1.48;1.38;;;18.70;99.90;21.80;100918.00;;;;6166562;23;20223;-71
2023/07/12 07:08:43;;;;;;;0.20;0.20;;;19.10;99.90;21.00;100913.00;;;;6217054;23;20137;-71
2023/07/12 07:11:09;;;;;;;0.65;0.65;;;18.90;99.90;20.80;100922.00;;;;6191483;23;20152;-71
2023/07/12 07:13:35;;;;;;;9.68;1.33;;;18.80;99.90;21.80;100920.00;;;;6191142;23;20177;-72
2023/07/12 07:16:00;;;;;;;2.53;1.58;;;19.00;99.90;23.80;100940.00;;;;6166137;23;20161;-71
2023/07/12 07:18:26;;;;;;;0.20;0.20;;;19.90;99.90;23.70;100982.00;;;;6191308;23;20143;-71
2023/07/12 07:20:53;;;;;;;0.20;0.20;;;20.80;99.90;23.00;100966.00;;;;6191138;23;20150;-71
2023/07/12 07:23:19;;;;;;;3.42;1.48;;;20.60;99.90;23.00;100975.00;;;;6190978;23;20165;-71
2023/07/12 07:25:46;;;;;;;1.20;0.95;;;20.50;99.90;22.10;100966.00;;;;6191165;23;20157;-71
2023/07/12 07:28:15;;;;;;;0.43;0.43;;;20.10;99.90;21.70;100908.00;;;;6191031;23;20570;-70
2023/07/12 07:30:40;;;;;;;1.52;1.40;;;19.50;99.90;22.10;100976.00;;;;6190619;23;20241;-71
2023/07/12 07:33:06;;;;;;;0.43;0.43;;;19.70;99.90;22.10;100914.00;;;;6190819;23;20641;-71
2023/07/12 07:35:44;;;;;;;1.55;1.45;;;19.50;99.90;22.40;100982.00;;;;6191016;23;20203;-71
2023/07/12 07:38:13;;;;;;;8.50;1.85;;;19.80;99.90;21.30;100960.00;;;;6217115;23;20150;-71
2023/07/12 07:40:41;;;;;;;0.10;0.10;;;19.30;99.90;21.60;100964.00;;;;6191462;23;20232;-71
2023/07/12 07:43:09;;;;;;;0.15;0.15;;;19.20;99.90;22.80;100989.00;;;;6190841;23;20199;-71
2023/07/12 07:45:36;;;;;;;1.85;0.63;;;19.60;99.90;23.00;101011.00;;;;6190528;23;20654;-71
2023/07/12 07:48:02;;;;;;;0.30;0.30;;;20.00;99.90;23.50;100986.00;;;;6190813;23;20154;-71
2023/07/12 07:50:28;;;;;;;0.20;0.20;;;20.20;99.90;23.10;101011.00;;;;6216823;23;20670;-71
2023/07/12 07:52:54;;;;;;;0.30;0.30;;;20.30;99.90;22.90;101002.00;;;;6190604;23;20194;-71
2023/07/12 07:55:21;;;;;;;0.10;0.10;;;20.20;99.90;23.50;101016.00;;;;6217208;23;20188;-71
2023/07/12 07:57:47;;;;;;;0.10;0.10;;;20.40;99.90;22.20;100993.00;;;;6165899;23;20182;-71
2023/07/12 08:00:14;;;;;;;0.10;0.10;;;20.20;99.90;23.90;101000.00;;;;6190160;23;20205;-71
2023/07/12 08:02:43;;;;;;;3.65;1.25;;;20.50;99.90;23.90;101022.00;;;;6217296;23;20470;-71
2023/07/12 08:05:11;;;;;;;1.00;0.40;;;21.60;99.90;23.40;101019.00;;;;6189984;23;20473;-71
2023/07/12 08:07:44;;;;;;;2.50;1.15;;;21.50;99.90;22.90;101010.00;;;;6190680;23;20150;-71
2023/07/12 08:10:15;;;;;;;14.85;1.10;;;21.20;99.90;23.90;101038.00;;;;6165584;23;20158;-70
2023/07/12 08:12:51;;;;;;;4.20;0.73;;;21.80;99.90;23.30;101033.00;;;;6190745;23;20175;-70
2023/07/12 08:15:19;;;;;;;4.38;2.08;;;21.20;99.90;23.00;101016.00;;;;6190551;23;20563;-70
2023/07/12 08:17:45;;;;;;;0.55;0.30;;;21.20;99.90;24.10;101025.00;;;;6216690;23;20147;-70
2023/07/12 08:20:33;;;;;;;0.10;0.10;;;21.80;99.90;23.00;101020.00;;;;6190364;23;20150;-70
2023/07/12 08:23:02;;;;;;;2.58;1.42;;;21.00;99.90;23.50;101024.00;;;;6190904;23;20143;-70
2023/07/12 08:25:28;;;;;;;0.20;0.20;;;21.20;99.90;23.70;101029.00;;;;6190674;23;20204;-70
2023/07/12 08:27:57;;;;;;;0.10;0.10;;;21.50;99.90;25.30;101030.00;;;;6216446;23;20147;-70
2023/07/12 08:30:23;;;;;;;0.30;0.30;;;21.90;99.90;23.50;101032.00;;;;6190831;23;20165;-70
2023/07/12 08:32:49;;;;;;;0.10;0.10;;;21.80;99.90;24.20;101035.00;;;;6190372;23;20163;-71
2023/07/12 08:35:17;;;;;;;1.40;0.40;;;21.50;99.90;22.60;101023.00;;;;6190085;23;20606;-70
2023/07/12 08:37:43;;;;;;;0.57;0.57;;;20.90;99.90;22.50;101037.00;;;;6190080;23;20156;-70
2023/07/12 08:40:14;;;;;;;0.20;0.20;;;20.60;99.90;23.00;101048.00;;;;6190275;23;20174;-70
2023/07/12 08:42:43;;;;;;;0.73;0.63;;;20.50;99.90;22.90;101052.00;;;;6190423;23;20170;-70
2023/07/12 08:45:33;;;;;;;0.10;0.10;;;20.30;99.90;24.80;101062.00;;;;6189935;23;20142;-71
2023/07/12 08:48:03;;;;;;;1.52;0.77;;;21.50;99.90;24.30;101061.00;;;;6186245;23;20661;-71
2023/07/12 08:50:39;;;;;;;0.10;0.10;;;21.90;99.90;24.10;101049.00;;;;6189911;23;20602;-71
2023/07/12 08:53:50;;;;;;;3.13;0.82;;;22.00;99.90;23.40;101056.00;;;;6190128;23;20166;-71
2023/07/12 08:56:22;;;;;;;1.02;0.45;;;21.90;99.90;24.80;101060.00;;;;6189659;23;20162;-70
2023/07/12 08:58:55;;;;;;;0.30;0.30;;;22.30;99.90;26.60;101085.00;;;;6165298;23;20166;-70
2023/07/12 09:01:46;;;;;;;2.78;1.55;;;23.10;99.90;23.60;101064.00;;;;6190494;23;20190;-70
2023/07/12 09:04:24;;;;;;;0.85;0.85;;;22.10;99.90;23.90;101065.00;;;;6189835;23;20165;-70
2023/07/12 09:06:56;;;;;;;0.57;0.57;;;22.00;99.90;24.80;101061.00;;;;6190058;23;20146;-70
2023/07/12 09:09:22;;;;;;;1.15;0.70;;;22.30;99.90;25.00;101116.00;;;;6189779;23;20154;-70
2023/07/12 09:11:51;;;;;;;0.10;0.10;;;22.90;99.90;26.70;101080.00;;;;6189973;23;20594;-71
2023/07/12 09:14:20;;;;;;;0.45;0.45;;;23.30;99.90;25.10;101159.00;;;;6190247;23;20225;-71
2023/07/12 09:16:49;;;;;;;1.65;1.15;;;23.40;99.90;25.20;101111.00;;;;6189229;23;20154;-70
2023/07/12 09:19:31;;;;;;;5.57;1.63;;;22.90;99.90;24.00;101108.00;;;;6164997;23;20162;-71
2023/07/12 09:22:12;;;;;;;0.47;0.47;;;22.40;99.90;26.20;101092.00;;;;6189463;23;20579;-70
2023/07/12 09:24:45;;;;;;;0.20;0.20;;;22.70;99.90;24.70;101118.00;;;;6190122;23;20169;-70
2023/07/12 09:27:22;;;;;;;0.85;0.82;;;22.70;99.90;25.00;101103.00;;;;6164785;23;20590;-70
2023/07/12 09:30:03;;;;;;;0.65;0.60;;;22.60;99.90;25.30;101123.00;;;;6189901;23;20158;-70
2023/07/12 09:32:34;;;;;;;0.45;0.43;;;23.00;99.90;26.50;101125.00;;;;6189697;23;20174;-71
2023/07/12 09:35:38;;;;;;;0.10;0.10;;;23.60;99.90;26.70;101118.00;;;;6189789;23;20246;-71
2023/07/12 09:38:17;;;;;;;0.47;0.47;;;23.90;99.90;27.20;101139.00;;;;6216078;23;20527;-71
2023/07/12 09:40:47;;;;;;;0.93;0.30;;;23.90;99.90;28.20;101118.00;;;;6189831;23;20216;-71
2023/07/12 09:43:26;;;;;;;0.15;0.15;;;24.40;99.90;27.20;101147.00;;;;6189606;23;20154;-71
2023/07/12 09:46:48;;;;;;;8.63;1.00;;;24.70;99.90;27.90;101142.00;;;;6189735;23;20142;-71
2023/07/12 09:49:40;;;;;;;0.20;0.20;;;25.30;99.90;27.60;101134.00;;;;6173795;23;20567;-71
2023/07/12 09:52:41;;;;;;;0.50;0.50;;;24.40;99.90;25.40;101183.00;;;;6164487;23;20185;-70
2023/07/12 09:55:37;;;;;;;3.33;1.63;;;23.70;99.90;26.40;101153.00;;;;6167195;23;20158;-70
2023/07/12 09:58:35;;;;;;;0.10;0.10;;;23.80;99.90;25.60;101182.00;;;;6164218;23;20165;-70
2023/07/12 10:01:19;;;;;;;0.30;0.30;;;23.70;99.90;25.60;101167.00;;;;6189120;23;20162;-70
2023/07/12 10:03:54;;;;;;;0.68;0.60;;;22.50;99.90;24.30;101158.00;;;;6188765;23;20158;-70
2023/07/12 10:06:44;;;;;;;1.10;1.00;;;22.30;99.90;25.10;101155.00;;;;6189471;23;20142;-70
2023/07/12 10:09:33;;;;;;;4.20;1.05;;;22.70;99.90;25.50;101105.00;;;;6189485;23;20149;-71
2023/07/12 10:12:37;;;;;;;1.85;0.93;;;23.10;99.90;26.40;101116.00;;;;6164401;23;20610;-70
2023/07/12 10:15:10;;;;;;;0.20;0.20;;;23.40;99.90;25.90;101162.00;;;;6189456;23;20150;-71
2023/07/12 10:17:41;;;;;;;0.47;0.47;;;23.60;99.90;27.90;101140.00;;;;6163921;23;20221;-71
2023/07/12 10:20:23;;;;;;;2.13;0.65;;;24.60;99.90;25.60;101164.00;;;;6189324;23;20503;-71
2023/07/12 10:33:44;;;;;;;1.58;0.90;;;22.90;99.90;25.30;101135.00;;;;5050295;28;20584;-69
2023/07/12 10:36:25;;;;;;;0.68;0.68;;;23.00;99.90;24.70;101159.00;;;;5041159;28;20191;-69
2023/07/12 10:38:52;;;;;;;0.20;0.20;;;22.80;99.90;25.80;101135.00;;;;5012662;28;20195;-69
2023/07/12 10:41:34;;;;;;;0.22;0.22;;;22.70;99.90;25.80;101152.00;;;;5036381;28;20718;-69
2023/07/12 10:44:20;;;;;;;0.30;0.30;;;22.80;99.90;24.60;101154.00;;;;5063977;28;20253;-69
2023/07/12 10:46:58;;;;;;;6.10;5.25;;;22.20;99.90;25.20;101142.00;;;;5034254;28;20666;-69
2023/07/12 10:49:43;;;;;;;0.38;0.38;;;22.30;99.90;24.80;101152.00;;;;5046757;28;20585;-69
2023/07/12 10:52:32;;;;;;;0.63;0.63;;;22.70;99.90;25.70;101159.00;;;;5041997;28;20233;-69
2023/07/12 10:55:03;;;;;;;1.40;0.63;;;23.10;99.90;27.10;101166.00;;;;5034421;28;20178;-69
2023/07/12 10:57:46;;;;;;;0.93;0.77;;;23.80;99.90;25.50;101169.00;;;;5049120;28;20178;-69
2023/07/12 11:00:18;;;;;;;1.30;1.02;;;23.20;99.90;27.00;101135.00;;;;5080457;28;20581;-69
2023/07/12 11:07:15;;;;;;;0.35;0.35;;;24.80;99.90;27.10;101120.00;;;;5018081;28;20635;-69
2023/07/12 11:09:45;;;;;;;1.25;0.82;;;24.30;99.90;27.60;101149.00;;;;5029075;28;20213;-69
2023/07/12 11:12:26;;;;;;;1.17;0.60;;;25.20;99.90;26.90;101169.00;;;;5037803;28;20252;-69
2023/07/12 11:15:21;;;;;;;0.90;0.85;;;24.70;99.90;27.00;101166.00;;;;5045082;28;20183;-69
2023/07/12 11:17:49;;;;;;;1.33;1.23;;;24.70;99.90;27.30;101154.00;;;;5025417;28;20241;-69
2023/07/12 11:20:30;;;;;;;0.82;0.38;;;24.30;99.90;26.20;101181.00;;;;5033329;28;20575;-69
2023/07/12 11:23:05;;;;;;;0.68;0.47;;;23.80;99.90;26.70;101133.00;;;;5040757;28;20188;-69
2023/07/12 11:25:43;;;;;;;0.57;0.57;;;24.00;99.90;28.20;101101.00;;;;5030669;28;20270;-69
2023/07/12 11:28:28;;;;;;;0.98;0.75;;;25.00;99.90;29.30;101113.00;;;;5034377;28;20186;-69
2023/07/12 11:31:31;;;;;;;0.20;0.20;;;26.30;99.90;31.40;101084.00;;;;5033069;28;20186;-69
2023/07/12 11:34:15;;;;;;;0.28;0.28;;;27.90;99.90;28.40;101134.00;;;;5011803;28;20238;-69
2023/07/12 11:36:48;;;;;;;0.93;0.93;;;26.70;99.90;27.60;101157.00;;;;5033037;28;20249;-69
2023/07/12 11:39:23;;;;;;;0.40;0.40;;;25.20;99.90;28.00;101151.00;;;;5028477;28;20195;-69
2023/07/12 11:41:55;;;;;;;2.75;0.93;;;24.60;99.90;26.70;101171.00;;;;5029133;28;20186;-69
2023/07/12 11:44:22;;;;;;;0.60;0.30;;;24.30;99.90;26.50;101185.00;;;;5028738;28;20202;-69
2023/07/12 11:46:50;;;;;;;1.13;0.60;;;24.20;99.90;29.00;101148.00;;;;4998842;28;20190;-69
2023/07/12 11:49:22;;;;;;;0.10;0.10;;;25.50;99.90;30.00;101137.00;;;;5018773;28;20186;-69
2023/07/12 11:51:53;;;;;;;6.72;0.50;;;26.60;99.90;28.90;101153.00;;;;5021882;28;20595;-70
2023/07/12 11:54:42;;;;;;;0.43;0.43;;;26.60;99.90;29.10;101111.00;;;;5002715;28;20644;-69
2023/07/12 11:57:12;;;;;;;2.17;0.68;;;26.00;99.90;27.20;101183.00;;;;5023504;28;20171;-69
2023/07/12 11:59:41;;;;;;;3.40;0.98;;;25.50;99.90;27.70;101166.00;;;;5016399;28;20186;-70
2023/07/12 12:02:20;;;;;;;2.83;1.27;;;25.30;99.90;27.00;101180.00;;;;5014606;28;20283;-69
2023/07/12 12:04:48;;;;;;;1.48;0.20;;;24.80;99.90;26.10;101183.00;;;;5010392;28;20182;-69
2023/07/12 12:07:26;;;;;;;0.70;0.47;;;24.00;99.90;27.40;101177.00;;;;4999250;28;20275;-69
2023/07/12 12:09:53;;;;;;;1.05;0.85;;;24.40;99.90;25.50;101209.00;;;;5028657;28;20182;-70
2023/07/12 12:12:28;;;;;;;1.30;0.57;;;23.80;99.90;26.30;101202.00;;;;5020977;28;20290;-69
2023/07/12 12:14:54;;;;;;;1.17;0.43;;;23.70;99.90;26.80;101178.00;;;;5029640;28;20297;-69
2023/07/12 12:17:46;;;;;;;0.40;0.40;;;23.70;99.90;25.70;101209.00;;;;5033325;28;20634;-70
2023/07/12 12:20:19;;;;;;;0.20;0.20;;;23.30;99.90;26.80;101204.00;;;;4997398;28;20194;-70
2023/07/12 12:23:21;;;;;;;0.22;0.22;;;23.60;99.90;25.50;101219.00;;;;5019222;28;20189;-70
2023/07/12 12:25:50;;;;;;;0.10;0.10;;;23.30;99.90;27.60;101196.00;;;;5053629;28;20198;-70
2023/07/12 12:28:37;;;;;;;1.48;1.40;;;23.60;99.90;26.10;101211.00;;;;5026232;28;20190;-69
2023/07/12 12:31:23;;;;;;;0.85;0.85;;;23.40;99.90;25.70;101214.00;;;;5024924;28;20186;-69
2023/07/12 12:34:13;;;;;;;0.10;0.10;;;23.30;99.90;27.00;101195.00;;;;5024800;28;20187;-69
2023/07/12 12:36:58;;;;;;;0.57;0.50;;;23.60;99.90;26.50;101164.00;;;;5020643;28;20277;-69
2023/07/12 12:39:24;;;;;;;0.55;0.55;;;24.20;99.90;27.60;101181.00;;;;5006403;28;20214;-69
2023/07/12 12:42:09;;;;;;;0.25;0.25;;;24.30;99.90;27.70;101183.00;;;;5035870;28;20199;-69
2023/07/12 12:44:36;;;;;;;0.95;0.35;;;24.70;99.90;28.10;101172.00;;;;5021446;28;20183;-69
2023/07/12 12:47:18;;;;;;;1.95;1.23;;;24.70;99.90;27.60;101166.00;;;;5023778;28;20200;-69
2023/07/12 12:49:45;;;;;;;0.30;0.30;;;25.10;99.90;26.50;101176.00;;;;5020847;28;20178;-69
2023/07/12 12:52:32;;;;;;;0.20;0.20;;;24.20;99.90;26.20;101151.00;;;;5023634;28;20274;-69
2023/07/12 12:55:05;;;;;;;1.17;0.73;;;23.90;99.90;26.60;101145.00;;;;5022841;28;20581;-69
2023/07/12 12:57:33;;;;;;;0.88;0.50;;;23.70;99.90;25.70;101175.00;;;;5019920;28;20179;-69
2023/07/12 13:00:01;;;;;;;1.08;0.57;;;23.60;99.90;26.20;101201.00;;;;5025282;28;20219;-69
2023/07/12 13:02:27;;;;;;;6.80;0.70;;;23.40;99.90;25.90;101203.00;;;;5020687;28;20202;-69
2023/07/12 13:04:54;;;;;;;0.22;0.22;;;23.40;99.90;27.00;101188.00;;;;5023864;28;20176;-69
2023/07/12 13:07:34;;;;;;;2.22;0.57;;;23.70;99.90;27.10;101183.00;;;;5029582;28;20190;-69
2023/07/12 13:10:20;;;;;;;0.68;0.55;;;23.90;99.90;28.00;101167.00;;;;5038998;28;20193;-69
2023/07/12 13:12:47;;;;;;;1.25;1.15;;;24.50;99.90;26.90;101184.00;;;;5023902;28;20215;-69
2023/07/12 13:15:30;;;;;;;1.55;0.82;;;24.30;99.90;26.30;101193.00;;;;5011928;28;20582;-69
2023/07/12 13:18:04;;;;;;;3.08;0.68;;;24.00;99.90;27.30;101178.00;;;;4994791;28;20531;-69
2023/07/12 13:20:32;;;;;;;3.03;0.77;;;23.90;99.90;26.70;101198.00;;;;5025570;28;20191;-69
2023/07/12 13:22:58;;;;;;;0.35;0.22;;;24.20;99.90;27.40;101175.00;;;;5013908;28;20274;-69
2023/07/12 13:25:26;;;;;;;0.90;0.80;;;24.30;99.90;27.00;101184.00;;;;5012396;28;20274;-69
2023/07/12 13:27:55;;;;;;;0.28;0.28;;;24.30;99.90;27.30;101186.00;;;;5006470;28;20175;-69
2023/07/12 13:30:26;;;;;;;0.52;0.43;;;24.10;99.90;27.50;101186.00;;;;5013993;28;20200;-69
2023/07/12 13:32:52;;;;;;;0.30;0.30;;;24.30;99.90;27.80;101182.00;;;;5038941;28;20249;-69
2023/07/12 13:35:23;;;;;;;0.30;0.30;;;24.40;99.90;27.00;101186.00;;;;5021627;28;20645;-69
2023/07/12 13:37:52;;;;;;;0.20;0.20;;;24.10;99.90;26.50;101196.00;;;;5023785;28;20653;-69
2023/07/12 13:40:21;;;;;;;0.22;0.22;;;23.70;99.90;27.50;101194.00;;;;5016757;28;20204;-69
2023/07/12 13:42:48;;;;;;;0.50;0.30;;;24.00;99.90;27.00;101201.00;;;;5019657;28;20186;-69
2023/07/12 13:45:16;;;;;;;0.70;0.50;;;23.80;99.90;26.30;101227.00;;;;5013142;28;20198;-69
2023/07/12 13:47:43;;;;;;;0.30;0.30;;;23.70;99.90;26.40;101178.00;;;;5021746;28;20560;-69
2023/07/12 13:50:24;;;;;;;0.70;0.70;;;23.40;99.90;26.50;101230.00;;;;5028615;28;20179;-69
2023/07/12 13:52:50;;;;;;;0.52;0.32;;;23.50;99.90;25.20;101239.00;;;;5031397;28;20198;-69
2023/07/12 13:55:25;;;;;;;0.35;0.35;;;22.90;99.90;26.20;101172.00;;;;5020519;28;20270;-69
2023/07/12 13:57:52;;;;;;;0.10;0.10;;;23.10;99.90;26.50;101237.00;;;;5002394;28;20251;-69
2023/07/12 14:00:19;;;;;;;0.30;0.30;;;23.20;99.90;26.50;101221.00;;;;5029781;28;20273;-69
2023/07/12 14:02:49;;;;;;;0.10;0.10;;;23.40;99.90;25.80;101189.00;;;;5016203;28;20198;-69
2023/07/12 14:05:15;;;;;;;0.30;0.25;;;23.10;99.90;25.30;101238.00;;;;5028235;28;20728;-69
2023/07/12 14:07:45;;;;;;;0.50;0.50;;;22.90;99.90;26.90;101192.00;;;;5023338;28;20273;-69
2023/07/12 14:10:22;;;;;;;0.65;0.32;;;23.10;99.90;26.60;101223.00;;;;5020506;28;20182;-69
2023/07/12 14:12:49;;;;;;;0.20;0.20;;;23.30;99.90;26.40;101239.00;;;;5008602;28;20665;-69
2023/07/12 14:15:22;;;;;;;0.38;0.38;;;23.30;99.90;25.80;101240.00;;;;5013722;28;20234;-69
2023/07/12 14:17:55;;;;;;;0.10;0.10;;;23.20;99.90;25.80;101264.00;;;;5015728;28;20187;-69
2023/07/12 14:20:29;;;;;;;3.33;1.10;;;23.00;99.90;25.50;101267.00;;;;5003155;28;20277;-69
2023/07/12 14:22:55;;;;;;;0.22;0.20;;;23.10;99.90;25.70;101264.00;;;;5022256;28;20240;-69
2023/07/12 14:25:22;;;;;;;1.17;1.08;;;23.10;99.90;25.40;101260.00;;;;5028051;28;20183;-69
2023/07/12 14:27:49;;;;;;;1.83;1.48;;;23.10;99.90;25.70;101258.00;;;;5026671;28;20193;-69
2023/07/12 14:30:17;;;;;;;0.30;0.30;;;23.00;99.90;26.40;101248.00;;;;5017343;28;20246;-69
2023/07/12 14:32:45;;;;;;;0.20;0.20;;;23.10;99.90;27.10;101251.00;;;;5020269;28;20218;-69
2023/07/12 14:35:20;;;;;;;0.10;0.10;;;23.40;99.90;26.60;101252.00;;;;5017548;28;20199;-69
2023/07/12 14:37:49;;;;;;;0.10;0.10;;;23.30;99.90;26.80;101247.00;;;;5021850;28;20280;-69
2023/07/12 14:40:16;;;;;;;0.20;0.20;;;23.50;99.90;25.90;101255.00;;;;5025794;28;20179;-69
2023/07/12 14:42:43;;;;;;;0.43;0.43;;;23.20;99.90;25.00;101225.00;;;;5022577;28;20187;-69
2023/07/12 14:45:21;;;;;;;0.77;0.63;;;22.90;99.90;25.50;101267.00;;;;5014871;28;20227;-69
2023/07/12 14:47:48;;;;;;;0.60;0.43;;;22.60;99.90;25.70;101259.00;;;;5035022;28;20183;-69
2023/07/12 14:50:34;;;;;;;0.52;0.52;;;22.70;99.90;26.40;101247.00;;;;5022757;28;20217;-69
2023/07/12 14:53:00;;;;;;;0.63;0.63;;;23.30;99.90;27.10;101212.00;;;;5014523;28;20245;-69
2023/07/12 14:55:26;;;;;;;0.20;0.20;;;23.50;99.90;26.20;101251.00;;;;5014010;28;20211;-69
2023/07/12 14:58:32;;;;;;;0.10;0.10;;;23.30;99.90;26.90;101218.00;;;;5022757;28;20194;-69
2023/07/12 15:01:00;;;;;;;0.82;0.60;;;23.50;99.90;27.00;101215.00;;;;5004513;28;20210;-69
2023/07/12 15:03:26;;;;;;;0.35;0.35;;;23.70;99.90;26.80;101221.00;;;;5010349;28;20662;-69
2023/07/12 15:05:52;;;;;;;1.42;0.80;;;23.80;99.90;26.40;101227.00;;;;5024933;28;20274;-69
2023/07/12 15:08:31;;;;;;;0.30;0.30;;;23.60;99.90;27.40;101216.00;;;;5032556;28;20184;-69
2023/07/12 15:11:03;;;;;;;0.65;0.30;;;23.80;99.90;27.50;101214.00;;;;4999134;28;20196;-69
2023/07/12 15:13:31;;;;;;;1.00;0.50;;;24.00;99.90;26.00;101227.00;;;;5000858;28;20721;-69
2023/07/12 15:15:56;;;;;;;0.57;0.52;;;23.80;99.90;26.70;101212.00;;;;5013371;28;20196;-69
2023/07/12 15:18:25;;;;;;;0.30;0.30;;;23.80;99.90;27.60;101209.00;;;;5020289;28;20638;-69
2023/07/12 15:20:56;;;;;;;2.22;1.13;;;24.10;99.90;26.80;101221.00;;;;5031030;28;20179;-69
2023/07/12 15:23:31;;;;;;;1.85;1.17;;;23.80;99.90;26.80;101204.00;;;;5025244;28;20187;-69
2023/07/12 15:25:58;;;;;;;1.55;0.30;;;23.90;99.90;27.20;101209.00;;;;5001661;28;20195;-69
2023/07/12 15:28:24;;;;;;;3.08;0.40;;;24.20;99.90;26.30;101191.00;;;;5008403;28;20186;-69
2023/07/12 15:31:37;;;;;;;6.43;0.90;;;23.90;99.90;26.20;101223.00;;;;5032777;28;20546;-69
2023/07/12 15:34:05;;;;;;;1.35;0.50;;;23.90;99.90;26.30;101205.00;;;;5023086;28;20598;-69
2023/07/12 15:36:32;;;;;;;0.55;0.55;;;23.90;99.90;26.90;101200.00;;;;5027720;28;20626;-69
2023/07/12 15:38:58;;;;;;;0.10;0.10;;;23.90;99.90;27.00;101169.00;;;;5021003;28;20194;-69
2023/07/12 15:41:35;;;;;;;0.20;0.20;;;24.00;99.90;26.60;101219.00;;;;5009848;28;20273;-69
2023/07/12 15:44:04;;;;;;;2.17;2.08;;;23.80;99.90;26.60;101217.00;;;;5051176;28;20202;-69
2023/07/12 15:46:31;;;;;;;4.38;0.40;;;23.70;99.90;25.70;101224.00;;;;5039718;28;20189;-68
2023/07/12 15:48:58;;;;;;;0.68;0.68;;;23.20;99.90;25.90;101210.00;;;;5034863;28;20193;-68
2023/07/12 15:51:39;;;;;;;0.30;0.30;;;23.20;99.90;26.70;101227.00;;;;5027590;28;20282;-69
2023/07/12 15:54:27;;;;;;;0.30;0.30;;;23.50;99.90;25.90;101230.00;;;;4999771;28;20187;-69
2023/07/12 15:56:52;;;;;;;0.20;0.20;;;23.30;99.90;26.90;101214.00;;;;5046188;28;20594;-69
2023/07/12 15:59:28;;;;;;;1.35;0.40;;;23.60;99.90;26.40;101182.00;;;;5026756;28;20272;-69
2023/07/12 16:01:54;;;;;;;1.95;0.90;;;23.60;99.90;26.00;101237.00;;;;5009996;28;20322;-69
2023/07/12 16:04:31;;;;;;;0.30;0.30;;;23.60;99.90;26.80;101184.00;;;;5020667;28;20282;-69
2023/07/12 16:06:57;;;;;;;0.50;0.50;;;23.50;99.90;27.00;101226.00;;;;5031173;28;20649;-70
2023/07/12 16:09:23;;;;;;;1.75;0.98;;;23.70;99.90;26.40;101248.00;;;;5028391;28;20191;-69
2023/07/12 16:11:52;;;;;;;1.73;0.80;;;23.60;99.90;25.80;101234.00;;;;5014642;28;20225;-70
2023/07/12 16:14:29;;;;;;;0.20;0.20;;;23.20;99.90;25.00;101220.00;;;;5041577;28;20195;-69
2023/07/12 16:16:59;;;;;;;1.27;0.35;;;22.80;99.90;26.40;101195.00;;;;5011500;28;20560;-69
2023/07/12 16:19:25;;;;;;;0.40;0.40;;;23.00;99.90;27.10;101227.00;;;;5015944;28;20218;-70
2023/07/12 16:21:51;;;;;;;0.70;0.30;;;23.30;99.90;25.80;101246.00;;;;5021996;28;20211;-69
2023/07/12 16:24:17;;;;;;;0.20;0.20;;;23.30;99.90;27.50;101220.00;;;;5020178;28;20206;-69
2023/07/12 16:26:43;;;;;;;1.45;0.85;;;23.80;99.90;26.20;101217.00;;;;5017620;28;20184;-70
2023/07/12 16:29:09;;;;;;;1.00;0.63;;;23.70;99.90;26.80;101229.00;;;;5018780;28;20183;-70
2023/07/12 16:31:45;;;;;;;0.60;0.32;;;23.70;99.90;26.00;101249.00;;;;5002117;28;20760;-70
2023/07/12 16:34:33;;;;;;;1.00;0.50;;;23.50;99.90;26.10;101227.00;;;;5026107;28;20187;-69
2023/07/12 16:36:59;;;;;;;0.25;0.20;;;23.30;99.90;26.00;101214.00;;;;5021481;28;20278;-70
2023/07/12 16:39:25;;;;;;;0.50;0.50;;;23.30;99.90;26.00;101263.00;;;;5016903;28;20217;-70
2023/07/12 16:41:52;;;;;;;0.73;0.73;;;23.20;99.90;25.50;101271.00;;;;5023747;28;20173;-69
2023/07/12 16:44:24;;;;;;;0.60;0.60;;;23.00;99.90;25.00;101272.00;;;;5017795;28;20227;-69
2023/07/12 16:46:51;;;;;;;0.38;0.38;;;22.70;99.90;25.40;101279.00;;;;5028403;28;20178;-70
2023/07/12 16:49:17;;;;;;;0.73;0.73;;;22.80;99.90;26.60;101260.00;;;;5023946;28;20187;-70
2023/07/12 16:51:58;;;;;;;0.40;0.40;;;23.10;99.90;26.50;101259.00;;;;5023104;28;20238;-70
2023/07/12 16:54:44;;;;;;;0.20;0.20;;;23.40;99.90;27.30;101248.00;;;;5028689;28;20260;-70
2023/07/12 16:57:21;;;;;;;0.90;0.52;;;23.50;99.90;26.40;101265.00;;;;5018105;28;20184;-70
2023/07/12 16:59:51;;;;;;;0.52;0.52;;;23.60;99.90;25.90;101274.00;;;;5020871;28;20246;-70
2023/07/12 17:02:28;;;;;;;2.40;2.20;;;23.20;99.90;25.50;101233.00;;;;5022987;28;20232;-70
2023/07/12 17:04:55;;;;;;;0.25;0.25;;;23.00;99.90;26.00;101272.00;;;;5029112;28;20265;-70
2023/07/12 17:07:24;;;;;;;0.88;0.65;;;22.80;99.90;25.70;101273.00;;;;5026676;28;20184;-70
2023/07/12 17:09:51;;;;;;;0.40;0.40;;;22.80;99.90;25.40;101272.00;;;;5024746;28;20265;-70
2023/07/12 17:12:34;;;;;;;0.10;0.10;;;22.60;99.90;25.40;101279.00;;;;5022162;28;20558;-70
2023/07/12 17:15:00;;;;;;;0.10;0.10;;;22.60;99.90;26.00;101271.00;;;;5027678;28;20243;-70
2023/07/12 17:17:29;;;;;;;0.68;0.40;;;22.80;99.90;24.90;101293.00;;;;5029301;28;20191;-70
2023/07/12 17:19:57;;;;;;;1.58;0.30;;;22.50;99.90;24.60;101298.00;;;;5024332;28;20589;-70
2023/07/12 17:22:23;;;;;;;0.82;0.45;;;22.40;99.90;25.50;101293.00;;;;5040733;28;20536;-70
2023/07/12 17:24:49;;;;;;;0.85;0.60;;;22.60;99.90;25.20;101301.00;;;;5017375;28;20194;-70
2023/07/12 17:27:20;;;;;;;2.65;1.05;;;22.50;99.90;24.30;101333.00;;;;5028419;28;20213;-70
2023/07/12 17:29:47;;;;;;;1.65;1.42;;;22.10;99.90;25.30;101319.00;;;;5025182;28;20278;-70
2023/07/12 17:32:18;;;;;;;0.90;0.50;;;22.20;99.90;24.50;101323.00;;;;5012411;28;20296;-70
2023/07/12 17:34:44;;;;;;;2.25;0.40;;;22.10;99.90;24.70;101314.00;;;;5020949;28;20179;-70
2023/07/12 17:37:17;;;;;;;1.20;0.30;;;22.10;99.90;24.80;101331.00;;;;5001489;28;20638;-70
2023/07/12 17:39:45;;;;;;;0.50;0.50;;;22.10;99.90;24.80;101337.00;;;;5032215;28;20281;-70
2023/07/12 17:42:14;;;;;;;0.65;0.65;;;22.00;99.90;24.70;101321.00;;;;5036774;28;20705;-70
2023/07/12 17:44:45;;;;;;;1.58;0.38;;;22.00;99.90;24.40;101335.00;;;;5010863;28;20174;-70
2023/07/12 17:47:20;;;;;;;0.10;0.10;;;22.00;99.90;24.90;101331.00;;;;5020204;28;20634;-70
2023/07/12 17:49:48;;;;;;;0.60;0.60;;;22.00;99.90;24.70;101340.00;;;;5019001;28;20179;-70
2023/07/12 17:52:18;;;;;;;0.10;0.10;;;22.00;99.90;25.80;101326.00;;;;5021074;28;20697;-70
2023/07/12 17:54:47;;;;;;;0.77;0.45;;;22.10;99.90;26.40;101310.00;;;;5003267;28;20188;-70
2023/07/12 17:57:14;;;;;;;0.45;0.30;;;22.60;99.90;25.50;101322.00;;;;5018422;28;20194;-70
2023/07/12 17:59:45;;;;;;;2.70;0.60;;;22.30;99.90;24.70;101331.00;;;;5003180;28;20282;-70
2023/07/12 18:02:23;;;;;;;0.77;0.45;;;21.90;99.90;24.30;101312.00;;;;5028946;28;20183;-70
2023/07/12 18:04:49;;;;;;;2.58;1.10;;;21.80;99.90;23.50;101345.00;;;;5028093;28;20641;-69
2023/07/12 18:07:23;;;;;;;0.10;0.10;;;21.50;99.90;24.70;101341.00;;;;5023076;28;20178;-69
2023/07/12 18:09:51;;;;;;;3.92;0.88;;;21.60;99.90;24.80;101348.00;;;;5016986;28;20626;-70
2023/07/12 18:12:22;;;;;;;5.53;0.88;;;21.70;99.90;24.60;101296.00;;;;5024173;28;20310;-69
2023/07/12 18:14:50;;;;;;;0.28;0.28;;;21.70;99.90;24.10;101359.00;;;;5012356;28;20634;-69
2023/07/12 18:17:21;;;;;;;0.35;0.35;;;21.60;99.90;24.70;101345.00;;;;5013879;28;20226;-70
2023/07/12 18:19:48;;;;;;;0.47;0.47;;;21.70;99.90;25.00;101357.00;;;;5025540;28;20245;-69
2023/07/12 18:22:19;;;;;;;0.20;0.20;;;21.60;99.90;24.50;101362.00;;;;5028568;28;20621;-70
2023/07/12 18:24:47;;;;;;;0.22;0.20;;;21.50;99.90;24.40;101361.00;;;;5019695;28;20188;-69
2023/07/12 18:27:19;;;;;;;3.47;0.43;;;21.70;99.90;24.80;101358.00;;;;5018006;28;20183;-70
2023/07/12 18:29:50;;;;;;;0.25;0.25;;;21.70;99.90;25.20;101347.00;;;;5016280;28;20237;-70